createdAt,value
2019-05-21T00:00:51.704Z,16.20
2019-05-21T00:03:22.206Z,16.20
2019-05-21T00:05:52.887Z,16.30
2019-05-21T00:08:23.239Z,16.40
2019-05-21T00:10:54.135Z,16.20
2019-05-21T00:13:24.813Z,16.00
2019-05-21T00:15:57.548Z,16.10
2019-05-21T00:18:27.896Z,16.00
2019-05-21T00:20:58.566Z,16.00
2019-05-21T00:23:29.233Z,16.00
2019-05-21T00:25:59.966Z,16.20
2019-05-21T00:28:40.004Z,16.00
2019-05-21T00:32:04.540Z,16.00
2019-05-21T00:35:30.401Z,16.00
2019-05-21T00:38:54.856Z,16.10
2019-05-21T00:42:00.419Z,15.90
2019-05-21T00:44:34.208Z,16.00
2019-05-21T00:47:05.981Z,16.10
2019-05-21T00:49:36.389Z,16.00
2019-05-21T00:52:09.034Z,15.90
2019-05-21T00:54:49.627Z,16.00
2019-05-21T00:57:19.999Z,15.80
2019-05-21T00:59:50.367Z,15.80
2019-05-21T01:02:20.764Z,15.90
2019-05-21T01:05:00.372Z,15.80
2019-05-21T01:07:25.504Z,15.90
2019-05-21T01:09:56.018Z,15.80
2019-05-21T01:12:26.551Z,16.10
2019-05-21T01:14:57.093Z,15.90
2019-05-21T01:17:28.298Z,15.80
2019-05-21T01:19:58.766Z,15.80
2019-05-21T01:22:29.374Z,15.70
2019-05-21T01:24:59.876Z,15.70
2019-05-21T01:27:30.303Z,15.70
2019-05-21T01:30:01.150Z,15.80
2019-05-21T01:32:31.668Z,15.50
2019-05-21T01:35:16.058Z,15.80
2019-05-21T01:37:35.027Z,15.80
2019-05-21T01:40:06.005Z,15.80
2019-05-21T01:42:37.680Z,15.60
2019-05-21T01:45:08.511Z,15.70
2019-05-21T01:47:39.017Z,15.70
2019-05-21T01:50:09.674Z,15.70
2019-05-21T01:52:40.244Z,15.70
2019-05-21T01:55:11.162Z,15.80
2019-05-21T01:57:41.669Z,15.70
2019-05-21T02:00:12.856Z,15.90
2019-05-21T02:02:43.779Z,15.80
2019-05-21T02:05:14.285Z,15.70
2019-05-21T02:07:44.707Z,15.80
2019-05-21T02:10:15.603Z,15.60
2019-05-21T02:12:46.245Z,15.60
2019-05-21T02:15:16.809Z,15.50
2019-05-21T02:17:47.207Z,15.50
2019-05-21T02:20:17.857Z,15.40
2019-05-21T02:22:48.260Z,15.30
2019-05-21T02:25:19.331Z,15.30
2019-05-21T02:27:49.812Z,15.30
2019-05-21T02:30:26.246Z,15.40
2019-05-21T02:32:56.634Z,15.50
2019-05-21T02:35:27.357Z,15.50
2019-05-21T02:37:58.424Z,15.40
2019-05-21T02:40:29.108Z,15.40
2019-05-21T02:42:59.481Z,15.50
2019-05-21T02:45:29.834Z,15.30
2019-05-21T02:48:00.207Z,15.30
2019-05-21T02:50:30.857Z,15.00
2019-05-21T02:53:01.342Z,14.90
2019-05-21T02:55:32.739Z,15.20
2019-05-21T02:58:03.066Z,15.20
2019-05-21T03:00:56.219Z,15.30
2019-05-21T03:03:28.679Z,15.20
2019-05-21T03:06:13.014Z,15.30
2019-05-21T03:08:31.142Z,15.00
2019-05-21T03:11:01.552Z,15.20
2019-05-21T03:13:31.923Z,15.00
2019-05-21T03:16:02.656Z,14.90
2019-05-21T03:18:33.036Z,14.90
2019-05-21T03:21:03.496Z,14.80
2019-05-21T03:23:34.236Z,15.00
2019-05-21T03:26:05.669Z,15.00
2019-05-21T03:28:36.082Z,15.10
2019-05-21T03:31:06.560Z,15.00
2019-05-21T03:33:37.577Z,14.90
2019-05-21T03:36:08.024Z,15.00
2019-05-21T03:38:38.415Z,15.10
2019-05-21T03:41:08.797Z,14.70
2019-05-21T03:43:39.251Z,14.90
2019-05-21T03:46:09.636Z,15.10
2019-05-21T03:48:40.318Z,15.10
2019-05-21T03:51:10.984Z,15.10
2019-05-21T03:53:41.635Z,14.90
2019-05-21T03:56:12.057Z,15.10
2019-05-21T03:58:42.757Z,15.00
2019-05-21T04:01:13.196Z,15.10
2019-05-21T04:03:43.643Z,15.00
2019-05-21T04:06:15.071Z,15.10
2019-05-21T04:08:45.905Z,14.80
2019-05-21T04:11:16.248Z,14.90
2019-05-21T04:13:47.317Z,14.90
2019-05-21T04:16:29.746Z,14.90
2019-05-21T04:19:07.051Z,14.90
2019-05-21T04:21:37.431Z,15.10
2019-05-21T04:24:08.993Z,15.00
2019-05-21T04:26:40.049Z,15.00
2019-05-21T04:29:10.373Z,15.10
2019-05-21T04:31:40.742Z,15.00
2019-05-21T04:34:12.097Z,14.90
2019-05-21T04:36:42.556Z,14.90
2019-05-21T04:39:12.962Z,14.90
2019-05-21T04:41:43.359Z,14.90
2019-05-21T04:44:13.875Z,15.10
2019-05-21T04:46:45.760Z,15.00
2019-05-21T04:49:16.102Z,15.00
2019-05-21T04:51:46.551Z,15.10
2019-05-21T04:54:16.967Z,15.10
2019-05-21T04:56:47.704Z,15.00
2019-05-21T04:59:18.105Z,15.00
2019-05-21T05:01:48.521Z,15.00
2019-05-21T05:04:21.648Z,15.10
2019-05-21T05:06:52.085Z,14.90
2019-05-21T05:09:22.571Z,15.10
2019-05-21T05:11:53.286Z,15.20
2019-05-21T05:14:23.631Z,15.20
2019-05-21T05:16:54.616Z,15.10
2019-05-21T05:19:26.055Z,15.10
2019-05-21T05:21:57.555Z,15.20
2019-05-21T05:24:28.102Z,15.40
2019-05-21T05:26:58.843Z,15.40
2019-05-21T05:29:29.269Z,15.40
2019-05-21T05:32:00.013Z,15.40
2019-05-21T05:34:33.766Z,15.40
2019-05-21T05:37:04.669Z,14.90
2019-05-21T05:39:35.147Z,15.00
2019-05-21T05:42:06.037Z,15.30
2019-05-21T05:44:36.831Z,15.00
2019-05-21T05:47:07.532Z,15.10
2019-05-21T05:49:42.518Z,15.20
2019-05-21T05:52:12.960Z,15.40
2019-05-21T05:54:43.374Z,15.20
2019-05-21T05:57:13.762Z,15.20
2019-05-21T05:59:44.199Z,15.40
2019-05-21T06:02:14.808Z,15.40
2019-05-21T06:04:45.500Z,15.30
2019-05-21T06:07:15.912Z,15.30
2019-05-21T06:09:46.665Z,15.40
2019-05-21T06:12:17.089Z,15.40
2019-05-21T06:14:47.718Z,15.30
2019-05-21T06:17:18.131Z,15.40
2019-05-21T06:19:48.534Z,15.60
2019-05-21T06:22:18.993Z,15.40
2019-05-21T06:24:50.688Z,15.40
2019-05-21T06:27:21.794Z,15.50
2019-05-21T06:29:52.324Z,15.20
2019-05-21T06:32:23.319Z,15.40
2019-05-21T06:34:53.830Z,15.10
2019-05-21T06:37:25.013Z,15.10
2019-05-21T06:39:55.503Z,15.20
2019-05-21T06:42:26.656Z,15.40
2019-05-21T06:45:07.451Z,15.40
2019-05-21T06:47:37.954Z,15.30
2019-05-21T06:50:09.189Z,15.40
2019-05-21T06:52:40.230Z,15.60
2019-05-21T06:55:10.793Z,15.40
2019-05-21T06:57:41.269Z,15.30
2019-05-21T07:00:14.170Z,15.30
2019-05-21T07:02:44.952Z,15.40
2019-05-21T07:05:16.012Z,15.40
2019-05-21T07:07:46.448Z,15.30
2019-05-21T07:10:17.033Z,15.30
2019-05-21T07:12:47.486Z,15.20
2019-05-21T07:15:18.014Z,15.50
2019-05-21T07:17:48.534Z,15.20
2019-05-21T07:20:19.873Z,15.20
2019-05-21T07:22:50.940Z,15.40
2019-05-21T07:25:21.559Z,15.20
2019-05-21T07:27:52.301Z,15.30
2019-05-21T07:30:22.739Z,15.20
2019-05-21T07:32:53.237Z,15.30
2019-05-21T07:35:23.735Z,15.40
2019-05-21T07:37:54.375Z,15.50
2019-05-21T07:40:24.703Z,15.50
2019-05-21T07:42:55.111Z,15.50
2019-05-21T07:45:25.488Z,15.60
2019-05-21T07:47:55.802Z,15.60
2019-05-21T07:50:26.174Z,15.50
2019-05-21T07:52:56.534Z,15.60
2019-05-21T07:55:27.204Z,15.40
2019-05-21T07:57:57.811Z,15.50
2019-05-21T08:00:28.244Z,15.50
2019-05-21T08:02:58.688Z,15.50
2019-05-21T08:05:29.032Z,15.50
2019-05-21T08:08:01.760Z,15.50
2019-05-21T08:10:32.702Z,15.40
2019-05-21T08:13:03.061Z,15.50
2019-05-21T08:15:33.403Z,15.70
2019-05-21T08:18:03.775Z,15.40
2019-05-21T08:20:34.136Z,15.70
2019-05-21T08:23:04.570Z,15.60
2019-05-21T08:25:35.259Z,15.40
2019-05-21T08:28:05.668Z,15.40
2019-05-21T08:30:36.011Z,15.50
2019-05-21T08:33:06.444Z,15.60
2019-05-21T08:35:55.894Z,15.70
2019-05-21T08:38:26.221Z,15.60
2019-05-21T08:40:56.710Z,15.50
2019-05-21T08:43:27.081Z,15.60
2019-05-21T08:45:57.591Z,15.60
2019-05-21T08:48:28.247Z,15.60
2019-05-21T08:50:58.959Z,15.70
2019-05-21T08:53:29.305Z,15.50
2019-05-21T08:55:59.678Z,15.60
2019-05-21T08:58:30.035Z,15.60
2019-05-21T09:01:00.540Z,15.40
2019-05-21T09:03:30.913Z,15.50
2019-05-21T09:06:01.255Z,15.60
2019-05-21T09:08:31.588Z,15.60
2019-05-21T09:11:01.985Z,15.70
2019-05-21T09:13:32.968Z,15.70
2019-05-21T09:16:03.326Z,15.70
2019-05-21T09:18:33.721Z,15.70
2019-05-21T09:21:04.088Z,15.40
2019-05-21T09:23:34.550Z,15.60
2019-05-21T09:26:04.856Z,15.60
2019-05-21T09:28:35.286Z,15.50
2019-05-21T09:31:07.061Z,15.60
2019-05-21T09:33:37.476Z,15.60
2019-05-21T09:36:07.864Z,15.60
2019-05-21T09:38:38.524Z,15.80
2019-05-21T09:41:08.879Z,15.50
2019-05-21T09:43:39.982Z,15.40
2019-05-21T09:46:10.721Z,15.40
2019-05-21T09:48:41.173Z,15.40
2019-05-21T09:51:19.516Z,15.60
2019-05-21T09:53:43.973Z,15.60
2019-05-21T09:56:33.292Z,15.50
2019-05-21T09:59:23.599Z,15.70
2019-05-21T10:01:56.808Z,15.70
2019-05-21T10:04:27.176Z,15.70
2019-05-21T10:06:57.969Z,15.50
2019-05-21T10:09:28.454Z,15.70
2019-05-21T10:11:58.905Z,15.80
2019-05-21T10:14:29.381Z,15.50
2019-05-21T10:16:59.758Z,15.40
2019-05-21T10:19:30.181Z,15.50
2019-05-21T10:22:00.575Z,15.50
2019-05-21T10:24:31.277Z,15.50
2019-05-21T10:27:03.514Z,15.30
2019-05-21T10:29:34.188Z,15.40
2019-05-21T10:32:04.708Z,15.40
2019-05-21T10:34:35.127Z,15.50
2019-05-21T10:37:05.670Z,15.30
2019-05-21T10:39:36.050Z,15.40
2019-05-21T10:42:06.557Z,15.30
2019-05-21T10:44:37.466Z,15.50
2019-05-21T10:47:08.366Z,15.50
2019-05-21T10:49:39.099Z,15.30
2019-05-21T10:52:09.567Z,15.40
2019-05-21T10:54:40.323Z,15.20
2019-05-21T10:57:10.727Z,15.50
2019-05-21T10:59:41.109Z,15.40
2019-05-21T11:02:30.763Z,15.40
2019-05-21T11:05:11.902Z,15.40
2019-05-21T11:07:43.056Z,15.50
2019-05-21T11:10:14.546Z,15.30
2019-05-21T11:12:45.074Z,15.30
2019-05-21T11:15:15.865Z,15.20
2019-05-21T11:18:07.145Z,15.00
2019-05-21T11:20:19.667Z,15.00
2019-05-21T11:22:50.059Z,14.90
2019-05-21T11:25:20.813Z,14.90
2019-05-21T11:27:51.417Z,15.10
2019-05-21T11:30:22.203Z,14.80
2019-05-21T11:32:52.552Z,14.80
2019-05-21T11:35:23.364Z,15.00
2019-05-21T11:37:53.823Z,15.30
2019-05-21T11:40:26.104Z,15.40
2019-05-21T11:42:56.475Z,15.40
2019-05-21T11:45:32.285Z,15.40
2019-05-21T11:47:59.338Z,15.30
2019-05-21T11:50:29.650Z,15.50
2019-05-21T11:53:00.001Z,15.40
2019-05-21T11:55:30.393Z,15.30
2019-05-21T11:58:00.778Z,15.40
2019-05-21T12:00:32.265Z,15.30
2019-05-21T12:03:02.673Z,15.40
2019-05-21T12:05:33.096Z,15.50
2019-05-21T12:08:03.484Z,15.40
2019-05-21T12:10:33.893Z,15.40
2019-05-21T12:13:04.212Z,15.50
2019-05-21T12:15:34.928Z,15.60
2019-05-21T12:18:05.620Z,15.80
2019-05-21T12:20:37.490Z,15.70
2019-05-21T12:23:08.315Z,15.80
2019-05-21T12:25:38.672Z,15.60
2019-05-21T12:28:11.348Z,15.40
2019-05-21T12:30:41.454Z,15.30
2019-05-21T12:33:11.981Z,15.40
2019-05-21T12:35:42.606Z,15.30
2019-05-21T12:38:12.976Z,15.40
2019-05-21T12:40:43.873Z,15.70
2019-05-21T12:43:14.636Z,15.40
2019-05-21T12:45:45.109Z,15.50
2019-05-21T12:48:15.717Z,15.70
2019-05-21T12:50:46.543Z,15.60
2019-05-21T12:53:17.032Z,15.60
2019-05-21T12:55:47.790Z,15.80
2019-05-21T12:58:18.203Z,16.00
2019-05-21T13:00:48.586Z,15.90
2019-05-21T13:03:18.959Z,16.10
2019-05-21T13:05:49.345Z,16.20
2019-05-21T13:08:19.994Z,16.40
2019-05-21T13:10:50.411Z,16.70
2019-05-21T13:13:20.799Z,16.20
2019-05-21T13:15:51.192Z,16.30
2019-05-21T13:18:21.661Z,16.30
2019-05-21T13:20:53.073Z,16.30
2019-05-21T13:23:23.679Z,16.40
2019-05-21T13:25:55.198Z,16.70
2019-05-21T13:28:25.870Z,16.80
2019-05-21T13:30:56.619Z,17.20
2019-05-21T13:33:26.961Z,17.30
2019-05-21T13:35:57.617Z,17.60
2019-05-21T13:38:28.138Z,17.40
2019-05-21T13:40:58.653Z,17.20
2019-05-21T13:43:29.121Z,17.20
2019-05-21T13:45:59.615Z,17.30
2019-05-21T13:48:30.324Z,17.60
2019-05-21T13:51:00.678Z,17.60
2019-05-21T13:53:31.045Z,17.50
2019-05-21T13:56:02.047Z,17.50
2019-05-21T13:58:32.967Z,17.70
2019-05-21T14:01:04.257Z,17.50
2019-05-21T14:03:35.515Z,17.60
2019-05-21T14:06:05.988Z,17.80
2019-05-21T14:08:36.295Z,17.90
2019-05-21T14:11:07.458Z,17.80
2019-05-21T14:13:38.490Z,18.00
2019-05-21T14:16:09.185Z,18.00
2019-05-21T14:18:40.021Z,17.90
2019-05-21T14:21:11.053Z,18.30
2019-05-21T14:23:41.436Z,18.70
2019-05-21T14:26:12.581Z,18.70
2019-05-21T14:28:43.660Z,18.80
2019-05-21T14:31:14.010Z,19.10
2019-05-21T14:33:46.838Z,19.20
2019-05-21T14:36:16.892Z,19.10
2019-05-21T14:38:47.278Z,18.70
2019-05-21T14:41:17.911Z,18.90
2019-05-21T14:43:48.254Z,19.50
2019-05-21T14:46:19.022Z,19.70
2019-05-21T14:48:49.546Z,19.30
2019-05-21T14:51:20.016Z,19.70
2019-05-21T14:53:50.433Z,19.70
2019-05-21T14:56:21.368Z,20.00
2019-05-21T14:58:52.133Z,19.60
2019-05-21T15:01:22.647Z,19.70
2019-05-21T15:03:53.164Z,19.40
2019-05-21T15:06:23.629Z,19.40
2019-05-21T15:08:54.075Z,19.10
2019-05-21T15:11:24.531Z,19.10
2019-05-21T15:13:55.374Z,19.20
2019-05-21T15:16:25.808Z,19.20
2019-05-21T15:18:56.576Z,18.90
2019-05-21T15:21:34.601Z,19.20
2019-05-21T15:24:05.512Z,19.40
2019-05-21T15:26:36.068Z,19.20
2019-05-21T15:29:06.534Z,19.40
2019-05-21T15:31:36.954Z,19.50
2019-05-21T15:34:07.672Z,19.70
2019-05-21T15:36:38.193Z,19.50
2019-05-21T15:39:09.032Z,19.70
2019-05-21T15:41:39.988Z,19.60
2019-05-21T15:44:10.410Z,19.30
2019-05-21T15:46:48.582Z,19.10
2019-05-21T15:49:13.229Z,19.30
2019-05-21T15:51:43.578Z,19.10
2019-05-21T15:54:14.084Z,19.50
2019-05-21T15:56:44.435Z,19.70
2019-05-21T15:59:15.331Z,19.70
2019-05-21T16:01:46.496Z,19.60
2019-05-21T16:04:17.168Z,19.10
2019-05-21T16:06:47.664Z,19.30
2019-05-21T16:09:18.343Z,19.20
2019-05-21T16:11:49.193Z,19.30
2019-05-21T16:14:36.970Z,19.30
2019-05-21T16:17:07.441Z,19.20
2019-05-21T16:19:37.801Z,19.10
2019-05-21T16:22:08.304Z,19.10
2019-05-21T16:24:38.964Z,19.40
2019-05-21T16:27:09.692Z,19.20
2019-05-21T16:29:40.339Z,19.20
2019-05-21T16:32:10.767Z,19.20
2019-05-21T16:34:41.427Z,19.20
2019-05-21T16:37:11.803Z,19.20
2019-05-21T16:39:49.108Z,19.20
2019-05-21T16:42:19.758Z,18.60
2019-05-21T16:44:50.433Z,19.10
2019-05-21T16:47:21.856Z,19.10
2019-05-21T16:49:52.505Z,19.20
2019-05-21T16:52:23.218Z,19.20
2019-05-21T16:54:53.649Z,18.90
2019-05-21T16:57:24.029Z,18.80
2019-05-21T16:59:54.729Z,18.50
2019-05-21T17:02:25.089Z,18.50
2019-05-21T17:04:55.476Z,18.90
2019-05-21T17:07:26.697Z,18.50
2019-05-21T17:09:57.032Z,18.90
2019-05-21T17:12:27.561Z,18.70
2019-05-21T17:14:58.033Z,19.00
2019-05-21T17:17:28.739Z,19.10
2019-05-21T17:19:59.383Z,18.70
2019-05-21T17:22:29.808Z,18.90
2019-05-21T17:25:00.453Z,18.50
2019-05-21T17:27:31.036Z,18.50
2019-05-21T17:30:01.665Z,18.80
2019-05-21T17:32:32.053Z,18.10
2019-05-21T17:35:02.482Z,18.10
2019-05-21T17:37:32.783Z,18.20
2019-05-21T17:40:03.309Z,17.90
2019-05-21T17:42:33.702Z,17.80
2019-05-21T17:45:04.359Z,18.00
2019-05-21T17:47:35.240Z,18.00
2019-05-21T17:50:06.332Z,18.00
2019-05-21T17:52:36.755Z,18.20
2019-05-21T17:55:07.798Z,18.00
2019-05-21T17:57:38.487Z,18.00
2019-05-21T18:00:11.468Z,18.10
2019-05-21T18:02:42.013Z,18.00
2019-05-21T18:05:13.460Z,18.00
2019-05-21T18:07:43.873Z,18.00
2019-05-21T18:10:17.153Z,17.90
2019-05-21T18:12:47.569Z,17.60
2019-05-21T18:15:19.068Z,18.00
2019-05-21T18:17:49.613Z,17.80
2019-05-21T18:20:21.237Z,17.60
2019-05-21T18:22:52.749Z,17.70
2019-05-21T18:25:25.601Z,17.40
2019-05-21T18:27:56.303Z,17.50
2019-05-21T18:30:26.884Z,17.50
2019-05-21T18:32:58.139Z,17.40
2019-05-21T18:35:28.896Z,17.60
2019-05-21T18:37:59.596Z,17.70
2019-05-21T18:40:29.899Z,17.70
2019-05-21T18:43:00.229Z,16.90
2019-05-21T18:45:30.600Z,17.20
2019-05-21T18:48:01.196Z,16.90
2019-05-21T18:50:36.685Z,17.10
2019-05-21T18:53:05.768Z,16.80
2019-05-21T18:55:36.117Z,16.60
2019-05-21T18:58:06.802Z,16.70
2019-05-21T19:00:38.025Z,16.70
2019-05-21T19:03:08.592Z,16.70
2019-05-21T19:05:38.961Z,17.00
2019-05-21T19:08:09.580Z,17.10
2019-05-21T19:10:40.175Z,17.30
2019-05-21T19:13:36.008Z,16.90
2019-05-21T19:16:06.554Z,17.00
2019-05-21T19:18:36.952Z,17.00
2019-05-21T19:21:07.339Z,16.70
2019-05-21T19:23:37.720Z,17.10
2019-05-21T19:26:08.436Z,17.10
2019-05-21T19:28:39.090Z,16.60
2019-05-21T19:31:09.425Z,16.60
2019-05-21T19:33:40.029Z,16.60
2019-05-21T19:36:10.612Z,16.70
2019-05-21T19:38:41.253Z,16.40
2019-05-21T19:41:11.634Z,16.50
2019-05-21T19:43:42.197Z,16.80
2019-05-21T19:46:13.038Z,16.40
2019-05-21T19:48:43.363Z,16.60
2019-05-21T19:51:13.718Z,16.70
2019-05-21T19:53:44.145Z,16.70
2019-05-21T19:56:14.818Z,16.70
2019-05-21T19:58:45.535Z,16.50
2019-05-21T20:01:15.860Z,16.40
2019-05-21T20:03:47.220Z,15.80
2019-05-21T20:06:18.594Z,16.20
2019-05-21T20:08:49.088Z,16.30
2019-05-21T20:11:19.941Z,16.20
2019-05-21T20:13:50.367Z,15.90
2019-05-21T20:16:24.836Z,16.30
2019-05-21T20:18:55.831Z,16.50
2019-05-21T20:21:27.832Z,16.60
2019-05-21T20:23:59.506Z,16.60
2019-05-21T20:26:33.371Z,16.00
2019-05-21T20:29:04.404Z,16.00
2019-05-21T20:31:35.378Z,16.10
2019-05-21T20:34:07.159Z,16.10
2019-05-21T20:36:40.701Z,16.40
2019-05-21T20:39:12.407Z,16.20
2019-05-21T20:41:43.553Z,16.40
2019-05-21T20:44:17.980Z,16.40
2019-05-21T20:46:48.404Z,16.20
2019-05-21T20:49:19.715Z,16.00
2019-05-21T20:51:50.741Z,16.30
2019-05-21T20:54:21.665Z,16.20
2019-05-21T20:56:53.235Z,16.10
2019-05-21T20:59:24.291Z,16.30
2019-05-21T21:01:54.771Z,15.90
2019-05-21T21:04:25.625Z,15.90
2019-05-21T21:06:56.536Z,16.00
2019-05-21T21:09:27.681Z,16.10
2019-05-21T21:11:58.885Z,16.30
2019-05-21T21:14:31.123Z,15.90
2019-05-21T21:17:01.753Z,15.90
2019-05-21T21:19:32.421Z,15.60
2019-05-21T21:22:02.765Z,15.80
2019-05-21T21:24:33.388Z,15.90
2019-05-21T21:27:04.630Z,15.80
2019-05-21T21:29:35.013Z,15.90
2019-05-21T21:32:05.635Z,15.90
2019-05-21T21:34:36.263Z,16.00
2019-05-21T21:37:07.081Z,15.80
2019-05-21T21:39:37.943Z,16.00
2019-05-21T21:42:08.643Z,15.80
2019-05-21T21:44:39.817Z,15.60
2019-05-21T21:47:10.555Z,15.80
2019-05-21T21:49:41.612Z,15.80
2019-05-21T21:52:14.430Z,15.80
2019-05-21T21:54:45.476Z,15.40
2019-05-21T21:57:15.877Z,15.70
2019-05-21T21:59:46.519Z,15.80
2019-05-21T22:02:27.709Z,15.80
2019-05-21T22:05:00.105Z,15.80
2019-05-21T22:07:30.967Z,15.90
2019-05-21T22:10:01.871Z,15.70
2019-05-21T22:12:32.585Z,15.80
2019-05-21T22:15:03.934Z,15.70
2019-05-21T22:17:34.711Z,15.80
2019-05-21T22:20:09.588Z,15.90
2019-05-21T22:22:39.857Z,15.60
2019-05-21T22:25:10.277Z,15.60
2019-05-21T22:27:40.768Z,15.60
2019-05-21T22:30:11.413Z,15.70
2019-05-21T22:32:42.358Z,15.50
2019-05-21T22:35:13.355Z,15.40
2019-05-21T22:37:48.620Z,15.40
2019-05-21T22:40:19.205Z,15.50
2019-05-21T22:42:49.529Z,15.20
2019-05-21T22:45:20.113Z,15.30
2019-05-21T22:47:51.131Z,15.40
2019-05-21T22:50:22.288Z,15.10
2019-05-21T22:52:53.395Z,15.10
2019-05-21T22:55:23.726Z,15.20
2019-05-21T22:57:54.023Z,15.30
2019-05-21T23:00:25.303Z,15.20
2019-05-21T23:02:56.964Z,15.50
2019-05-21T23:05:27.836Z,15.30
2019-05-21T23:07:58.719Z,15.50
2019-05-21T23:10:29.101Z,15.00
2019-05-21T23:12:59.706Z,15.20
2019-05-21T23:15:30.752Z,14.90
2019-05-21T23:18:01.376Z,14.80
2019-05-21T23:20:34.047Z,15.00
2019-05-21T23:23:07.743Z,14.90
2019-05-21T23:25:40.469Z,15.00
2019-05-21T23:28:11.464Z,15.00
2019-05-21T23:30:41.907Z,15.20
2019-05-21T23:33:14.401Z,14.70
2019-05-21T23:35:45.215Z,14.90
2019-05-21T23:38:16.571Z,14.70
2019-05-21T23:40:48.642Z,14.70
2019-05-21T23:43:19.515Z,14.80
2019-05-21T23:45:49.854Z,14.80
2019-05-21T23:48:22.552Z,14.80
2019-05-21T23:50:53.706Z,14.70
2019-05-21T23:53:24.049Z,14.60
2019-05-21T23:55:54.515Z,14.50
2019-05-21T23:58:25.039Z,14.60
